UAOO 181700Z 01003MPS 9999 BKN046CB 27/15 Q1004 NOSIG RMK QFE741/0988
QNH:(hPa/inHg/mmHg)1004 / 29.65 / 753
QFE:(hPa/inHg/mmHg)988 / 29.17 / 741
Temperature27
Dew Point15
Visibility> 10000
Weather
Cloud CoverBKN (4600);
Transition Altitude10000 ft.
Transition LevelFL120
SQUAWK